Time;durP1;ratioP1;P1;durP2;ratioP2;P2;SDS_P1;SDS_P2;PMS_P1;PMS_P2;Temp;Humidity;BMP_temperature;BMP_pressure;BME280_temperature;BME280_humidity;BME280_pressure;Samples;Min_cycle;Max_cycle;Signal;HPM_P1;HPM_P2
2023/03/20 00:01:25;;;;;;;4.20;3.50;;;;;;;;;;5037954;28;20203;-89
2023/03/20 00:03:52;;;;;;;5.20;3.93;;;;;;;;;;5036223;28;20229;-89
2023/03/20 00:06:20;;;;;;;3.50;3.20;;;;;;;;;;5034401;28;20213;-89
2023/03/20 00:08:48;;;;;;;3.83;3.50;;;;;;;;;;5022352;28;20226;-88
2023/03/20 00:11:27;;;;;;;4.67;3.60;;;;;;;;;;5035861;28;20223;-89
2023/03/20 00:13:55;;;;;;;4.00;3.70;;;;;;;;;;5034795;28;20242;-88
2023/03/20 00:16:24;;;;;;;3.80;3.50;;;;;;;;;;5028193;28;20199;-89
2023/03/20 00:18:51;;;;;;;4.03;3.73;;;;;;;;;;5035132;28;20237;-88
2023/03/20 00:21:19;;;;;;;3.70;3.40;;;;;;;;;;5020642;28;20199;-89
2023/03/20 00:23:46;;;;;;;3.83;3.47;;;;;;;;;;5019173;28;20291;-89
2023/03/20 00:26:14;;;;;;;4.20;3.90;;;;;;;;;;5018313;28;20203;-88
2023/03/20 00:28:42;;;;;;;4.47;4.07;;;;;;;;;;5032227;28;20230;-90
2023/03/20 00:31:15;;;;;;;4.87;3.83;;;;;;;;;;5031286;28;20218;-89
2023/03/20 00:33:44;;;;;;;4.03;3.43;;;;;;;;;;5034741;28;20242;-89
2023/03/20 00:36:11;;;;;;;4.60;3.83;;;;;;;;;;5025807;28;20574;-89
2023/03/20 00:38:38;;;;;;;5.10;4.10;;;;;;;;;;5034140;28;20234;-89
2023/03/20 00:41:19;;;;;;;4.07;3.63;;;;;;;;;;5034815;28;20198;-88
2023/03/20 00:43:46;;;;;;;4.00;3.70;;;;;;;;;;5034432;28;20241;-89
2023/03/20 00:46:15;;;;;;;3.90;3.60;;;;;;;;;;5034755;28;20209;-89
2023/03/20 00:48:43;;;;;;;4.33;3.90;;;;;;;;;;5034086;28;20245;-89
2023/03/20 00:51:11;;;;;;;3.93;3.63;;;;;;;;;;5034951;28;20230;-89
2023/03/20 00:53:38;;;;;;;4.00;3.60;;;;;;;;;;5034135;28;20242;-88
2023/03/20 00:56:06;;;;;;;4.20;3.87;;;;;;;;;;5034841;28;20202;-89
2023/03/20 00:58:33;;;;;;;4.67;3.83;;;;;;;;;;5033917;28;20239;-89
2023/03/20 01:01:00;;;;;;;4.30;3.90;;;;;;;;;;5035156;28;20693;-88
2023/03/20 01:03:28;;;;;;;8.87;4.23;;;;;;;;;;5033492;28;20230;-89
2023/03/20 01:05:56;;;;;;;4.67;4.27;;;;;;;;;;5034401;28;20241;-89
2023/03/20 01:08:26;;;;;;;4.63;3.60;;;;;;;;;;5031227;28;20759;-89
2023/03/20 01:10:54;;;;;;;4.13;3.73;;;;;;;;;;5026861;28;20697;-88
2023/03/20 01:13:22;;;;;;;4.33;3.93;;;;;;;;;;5033418;28;20420;-89
2023/03/20 01:15:50;;;;;;;4.43;4.03;;;;;;;;;;5016671;28;20204;-88
2023/03/20 01:18:18;;;;;;;5.27;4.17;;;;;;;;;;5013667;28;20239;-88
2023/03/20 01:20:45;;;;;;;4.63;4.00;;;;;;;;;;5024552;28;20210;-88
2023/03/20 01:23:13;;;;;;;4.53;4.13;;;;;;;;;;5034352;28;20705;-89
2023/03/20 01:25:42;;;;;;;4.23;3.83;;;;;;;;;;5034511;28;20227;-90
2023/03/20 01:28:14;;;;;;;4.97;4.40;;;;;;;;;;5034040;28;20623;-90
2023/03/20 01:30:41;;;;;;;4.63;4.27;;;;;;;;;;5034778;28;20206;-90
2023/03/20 01:33:12;;;;;;;4.23;3.93;;;;;;;;;;5034117;28;20606;-89
2023/03/20 01:35:40;;;;;;;4.60;4.20;;;;;;;;;;5034202;28;20226;-88
2023/03/20 01:38:11;;;;;;;5.20;4.30;;;;;;;;;;5034039;28;20829;-90
2023/03/20 01:40:42;;;;;;;4.37;3.93;;;;;;;;;;5034139;28;20211;-89
2023/03/20 01:43:14;;;;;;;5.27;4.77;;;;;;;;;;5033061;28;20235;-89
2023/03/20 01:45:55;;;;;;;6.60;4.27;;;;;;;;;;5033770;28;20769;-89
2023/03/20 01:48:24;;;;;;;5.30;4.77;;;;;;;;;;5033938;28;20238;-89
2023/03/20 01:50:51;;;;;;;5.63;4.93;;;;;;;;;;5033649;28;20726;-89
2023/03/20 01:53:21;;;;;;;6.27;5.20;;;;;;;;;;5032897;28;20235;-89
2023/03/20 01:55:50;;;;;;;6.33;5.73;;;;;;;;;;5024303;28;20294;-90
2023/03/20 01:58:20;;;;;;;7.07;5.93;;;;;;;;;;5029179;28;20242;-89
2023/03/20 02:00:48;;;;;;;7.80;5.50;;;;;;;;;;5018945;28;20191;-89
2023/03/20 02:03:16;;;;;;;7.27;5.83;;;;;;;;;;5032085;28;20313;-89
2023/03/20 02:05:44;;;;;;;9.00;6.17;;;;;;;;;;5032508;28;20643;-90
2023/03/20 02:08:13;;;;;;;7.33;6.20;;;;;;;;;;5032853;28;20234;-89
2023/03/20 02:10:41;;;;;;;5.03;4.53;;;;;;;;;;5033690;28;20237;-89
2023/03/20 02:13:09;;;;;;;5.97;5.10;;;;;;;;;;5032566;28;20234;-89
2023/03/20 02:15:51;;;;;;;5.53;5.03;;;;;;;;;;5033387;28;20234;-90
2023/03/20 02:18:20;;;;;;;5.80;5.20;;;;;;;;;;5031061;28;20230;-89
2023/03/20 02:20:56;;;;;;;6.37;5.50;;;;;;;;;;5033710;28;20613;-89
2023/03/20 02:23:43;;;;;;;6.47;5.80;;;;;;;;;;5035420;28;20229;-89
2023/03/20 02:26:19;;;;;;;7.43;5.57;;;;;;;;;;5037493;28;20582;-89
2023/03/20 02:29:00;;;;;;;7.70;6.17;;;;;;;;;;5032713;28;20227;-89
2023/03/20 02:31:45;;;;;;;7.60;6.47;;;;;;;;;;5017284;28;20614;-90
2023/03/20 02:34:32;;;;;;;7.10;6.37;;;;;;;;;;4967814;28;20319;-90
2023/03/20 02:37:18;;;;;;;8.83;6.70;;;;;;;;;;5000902;28;20234;-90
2023/03/20 02:40:00;;;;;;;9.23;8.10;;;;;;;;;;5019205;28;20211;-89
2023/03/20 02:42:33;;;;;;;9.87;8.53;;;;;;;;;;5038789;28;20241;-89
2023/03/20 02:45:04;;;;;;;10.73;8.33;;;;;;;;;;5039933;28;20864;-90
2023/03/20 02:47:33;;;;;;;10.07;8.97;;;;;;;;;;5038787;28;20238;-90
2023/03/20 02:50:04;;;;;;;9.67;8.53;;;;;;;;;;5038758;28;20207;-90
2023/03/20 02:52:33;;;;;;;9.67;8.67;;;;;;;;;;5036957;28;20702;-90
2023/03/20 02:55:08;;;;;;;8.70;7.67;;;;;;;;;;5037991;28;20342;-90
2023/03/20 02:57:42;;;;;;;12.00;8.70;;;;;;;;;;5036158;28;20738;-90
2023/03/20 03:00:11;;;;;;;11.80;9.20;;;;;;;;;;5036694;28;20206;-90
2023/03/20 03:02:40;;;;;;;11.10;8.37;;;;;;;;;;5036081;28;20245;-90
2023/03/20 03:05:11;;;;;;;10.13;8.03;;;;;;;;;;5037412;28;20234;-90
2023/03/20 03:07:40;;;;;;;10.83;9.13;;;;;;;;;;5036839;28;20697;-90
2023/03/20 03:10:11;;;;;;;10.57;8.83;;;;;;;;;;5037248;28;20206;-90
2023/03/20 03:12:41;;;;;;;10.20;7.80;;;;;;;;;;5036265;28;20317;-90
2023/03/20 03:15:14;;;;;;;10.07;8.87;;;;;;;;;;5032389;28;20237;-90
2023/03/20 03:17:51;;;;;;;9.87;8.00;;;;;;;;;;5030215;28;20751;-90
2023/03/20 03:20:22;;;;;;;10.70;9.13;;;;;;;;;;5020104;28;20200;-90
2023/03/20 03:22:49;;;;;;;8.93;7.73;;;;;;;;;;5037432;28;20314;-90
2023/03/20 03:25:18;;;;;;;7.90;6.93;;;;;;;;;;5039738;28;20245;-90
2023/03/20 03:27:47;;;;;;;9.37;7.43;;;;;;;;;;5038519;28;20234;-90
2023/03/20 03:30:16;;;;;;;7.73;6.63;;;;;;;;;;5038676;28;20590;-90
2023/03/20 03:32:45;;;;;;;9.30;7.20;;;;;;;;;;5035568;28;20743;-90
2023/03/20 03:35:15;;;;;;;8.87;7.10;;;;;;;;;;5035089;28;20353;-89
2023/03/20 03:37:46;;;;;;;9.07;6.70;;;;;;;;;;5036006;28;20259;-90
2023/03/20 03:40:19;;;;;;;12.97;7.53;;;;;;;;;;5036128;28;20199;-90
2023/03/20 03:42:51;;;;;;;8.47;7.10;;;;;;;;;;5035833;28;20234;-89
2023/03/20 03:45:22;;;;;;;10.83;8.03;;;;;;;;;;5036076;28;20235;-90
2023/03/20 03:47:52;;;;;;;8.50;7.13;;;;;;;;;;5035612;28;20284;-89
2023/03/20 03:50:21;;;;;;;11.30;7.73;;;;;;;;;;5036077;28;20195;-90
2023/03/20 03:52:49;;;;;;;10.00;7.37;;;;;;;;;;5035356;28;20234;-90
2023/03/20 03:55:20;;;;;;;10.77;7.97;;;;;;;;;;5027201;28;20249;-90
2023/03/20 03:57:50;;;;;;;10.70;7.93;;;;;;;;;;5016048;28;20223;-90
2023/03/20 04:00:18;;;;;;;10.63;8.07;;;;;;;;;;5032207;28;20214;-89
2023/03/20 04:02:46;;;;;;;9.03;7.07;;;;;;;;;;5017850;28;20239;-89
2023/03/20 04:05:14;;;;;;;8.70;7.13;;;;;;;;;;5028324;28;20233;-89
2023/03/20 04:07:44;;;;;;;10.00;7.17;;;;;;;;;;5034677;28;20728;-90
2023/03/20 04:10:12;;;;;;;8.83;7.43;;;;;;;;;;5023511;28;20199;-89
2023/03/20 04:12:41;;;;;;;9.53;7.90;;;;;;;;;;5015152;28;20249;-89
2023/03/20 04:15:08;;;;;;;10.83;7.93;;;;;;;;;;5034133;28;20246;-90
2023/03/20 04:17:36;;;;;;;10.43;7.97;;;;;;;;;;5022123;28;20245;-90
2023/03/20 04:20:03;;;;;;;9.10;7.93;;;;;;;;;;5018682;28;20203;-90
2023/03/20 04:22:30;;;;;;;10.10;8.20;;;;;;;;;;5028293;28;20289;-90
2023/03/20 04:24:57;;;;;;;10.87;8.47;;;;;;;;;;5034775;28;20222;-89
2023/03/20 04:27:24;;;;;;;9.83;7.07;;;;;;;;;;5030759;28;20231;-89
2023/03/20 04:29:52;;;;;;;10.13;8.20;;;;;;;;;;5026530;28;20204;-89
2023/03/20 04:32:20;;;;;;;10.40;8.17;;;;;;;;;;5014233;28;20596;-89
2023/03/20 04:34:47;;;;;;;10.30;8.87;;;;;;;;;;5014961;28;20253;-89
2023/03/20 04:37:14;;;;;;;9.57;8.10;;;;;;;;;;5015159;28;20585;-89
2023/03/20 04:39:41;;;;;;;10.03;8.33;;;;;;;;;;5027267;28;20210;-89
2023/03/20 04:42:09;;;;;;;9.37;7.37;;;;;;;;;;5030641;28;20242;-89
2023/03/20 04:44:36;;;;;;;11.43;8.83;;;;;;;;;;5034741;28;20250;-89
2023/03/20 04:47:05;;;;;;;12.00;8.93;;;;;;;;;;5034120;28;20237;-89
2023/03/20 04:49:32;;;;;;;13.27;9.60;;;;;;;;;;5034642;28;20214;-89
2023/03/20 04:51:59;;;;;;;12.53;9.37;;;;;;;;;;5033905;28;20242;-90
2023/03/20 04:54:26;;;;;;;12.30;9.23;;;;;;;;;;5034617;28;20245;-89
2023/03/20 04:56:53;;;;;;;12.53;9.50;;;;;;;;;;5034064;28;20269;-89
2023/03/20 04:59:20;;;;;;;13.40;10.33;;;;;;;;;;5034496;28;20198;-89
2023/03/20 05:01:47;;;;;;;11.97;9.73;;;;;;;;;;5033635;28;20210;-89
2023/03/20 05:04:16;;;;;;;15.97;10.33;;;;;;;;;;5033924;28;20219;-89
2023/03/20 05:06:47;;;;;;;14.47;10.30;;;;;;;;;;5033562;28;20217;-88
2023/03/20 05:09:14;;;;;;;13.67;10.33;;;;;;;;;;5033757;28;20745;-87
2023/03/20 05:11:41;;;;;;;14.33;10.87;;;;;;;;;;5032896;28;20554;-89
2023/03/20 05:16:37;;;;;;;14.90;11.37;;;;;;;;;;5087520;22;20320;-84
2023/03/20 05:19:04;;;;;;;14.63;11.00;;;;;;;;;;5071738;28;20209;-85
2023/03/20 05:21:32;;;;;;;13.93;10.93;;;;;;;;;;5071478;28;20197;-85
2023/03/20 05:24:00;;;;;;;13.97;10.73;;;;;;;;;;5064300;28;20194;-85
2023/03/20 05:26:27;;;;;;;14.37;10.87;;;;;;;;;;5039458;28;20226;-86
2023/03/20 05:28:55;;;;;;;16.40;11.77;;;;;;;;;;5051948;28;20233;-85
2023/03/20 05:31:22;;;;;;;16.27;11.80;;;;;;;;;;5051752;28;20214;-85
2023/03/20 05:33:49;;;;;;;18.33;12.07;;;;;;;;;;5051184;28;20230;-86
2023/03/20 05:36:16;;;;;;;15.67;11.77;;;;;;;;;;5052111;28;20222;-85
2023/03/20 05:38:44;;;;;;;16.87;12.67;;;;;;;;;;5058846;28;20663;-85
2023/03/20 05:41:11;;;;;;;16.20;11.40;;;;;;;;;;5066003;28;20206;-85
2023/03/20 05:43:39;;;;;;;17.03;11.10;;;;;;;;;;5050395;28;20236;-84
2023/03/20 05:46:06;;;;;;;17.23;12.47;;;;;;;;;;5052177;28;20236;-85
2023/03/20 05:48:33;;;;;;;16.53;11.33;;;;;;;;;;5057822;28;20234;-85
2023/03/20 05:51:00;;;;;;;17.10;12.10;;;;;;;;;;5051565;28;20198;-85
2023/03/20 05:53:27;;;;;;;13.53;11.03;;;;;;;;;;5035071;28;20267;-85
2023/03/20 05:55:55;;;;;;;19.07;12.60;;;;;;;;;;5031562;28;20223;-85
2023/03/20 05:58:22;;;;;;;16.63;12.90;;;;;;;;;;5046134;28;20233;-85
2023/03/20 06:00:50;;;;;;;18.13;12.87;;;;;;;;;;5051565;28;20198;-85
2023/03/20 06:03:17;;;;;;;18.70;13.57;;;;;;;;;;5050711;28;20237;-85
2023/03/20 06:05:44;;;;;;;19.17;13.10;;;;;;;;;;5051708;28;20356;-85
2023/03/20 06:08:12;;;;;;;18.37;14.37;;;;;;;;;;5050977;28;20234;-85
2023/03/20 06:10:39;;;;;;;17.10;12.77;;;;;;;;;;5051242;28;20635;-86
2023/03/20 06:13:07;;;;;;;16.93;12.80;;;;;;;;;;5050356;28;20239;-86
2023/03/20 06:15:34;;;;;;;19.33;13.87;;;;;;;;;;5051246;28;20222;-85
2023/03/20 06:18:02;;;;;;;23.97;13.13;;;;;;;;;;5050899;28;20295;-85
2023/03/20 06:20:29;;;;;;;19.47;14.07;;;;;;;;;;5051344;28;20183;-85
2023/03/20 06:22:56;;;;;;;19.00;13.53;;;;;;;;;;5050522;28;20267;-85
2023/03/20 06:25:24;;;;;;;17.17;13.07;;;;;;;;;;5051433;28;20253;-85
2023/03/20 06:27:51;;;;;;;17.60;13.77;;;;;;;;;;5039855;28;20246;-85
2023/03/20 06:30:19;;;;;;;19.43;14.13;;;;;;;;;;5031611;28;20211;-86
2023/03/20 06:32:47;;;;;;;18.17;13.20;;;;;;;;;;5030609;28;20322;-85
2023/03/20 06:35:14;;;;;;;18.50;14.03;;;;;;;;;;5031484;28;20230;-85
2023/03/20 06:37:41;;;;;;;18.33;13.83;;;;;;;;;;5031001;28;20238;-85
2023/03/20 06:40:09;;;;;;;18.07;14.07;;;;;;;;;;5031296;28;20207;-84
2023/03/20 06:42:37;;;;;;;17.57;13.50;;;;;;;;;;5030450;28;20234;-85
2023/03/20 06:45:05;;;;;;;18.90;14.53;;;;;;;;;;5031135;28;20219;-84
2023/03/20 06:47:34;;;;;;;20.87;13.77;;;;;;;;;;5030896;28;20234;-83
2023/03/20 06:50:02;;;;;;;20.60;14.53;;;;;;;;;;5031133;28;20207;-84
2023/03/20 06:52:29;;;;;;;19.43;13.83;;;;;;;;;;5030591;28;20242;-84
2023/03/20 06:54:56;;;;;;;16.93;13.57;;;;;;;;;;5030737;28;20706;-84
2023/03/20 06:57:23;;;;;;;18.17;13.73;;;;;;;;;;5030838;28;20234;-85
2023/03/20 06:59:50;;;;;;;23.07;15.07;;;;;;;;;;5031115;28;20297;-84
2023/03/20 07:02:17;;;;;;;21.97;15.23;;;;;;;;;;5030312;28;20923;-83
2023/03/20 07:04:46;;;;;;;21.30;14.17;;;;;;;;;;5030894;28;20730;-83
2023/03/20 07:07:13;;;;;;;23.03;15.93;;;;;;;;;;5030786;28;20262;-84
2023/03/20 07:09:41;;;;;;;21.97;15.40;;;;;;;;;;5032652;28;20226;-84
2023/03/20 07:12:12;;;;;;;24.10;16.43;;;;;;;;;;5023312;28;20242;-84
2023/03/20 07:14:40;;;;;;;21.43;15.13;;;;;;;;;;5034266;28;20230;-85
2023/03/20 07:17:07;;;;;;;24.13;17.43;;;;;;;;;;5033851;28;20227;-84
2023/03/20 07:19:35;;;;;;;25.70;16.97;;;;;;;;;;5034142;28;20245;-85
2023/03/20 07:22:05;;;;;;;26.50;16.83;;;;;;;;;;5029547;28;20769;-84
2023/03/20 07:24:32;;;;;;;24.30;17.13;;;;;;;;;;5014245;28;20239;-84
2023/03/20 07:26:59;;;;;;;24.40;15.63;;;;;;;;;;5013642;28;20238;-85
2023/03/20 07:29:26;;;;;;;29.80;18.10;;;;;;;;;;5013514;28;20709;-85
2023/03/20 07:31:53;;;;;;;23.30;15.27;;;;;;;;;;5012741;28;20583;-84
2023/03/20 07:34:21;;;;;;;26.13;17.93;;;;;;;;;;5027486;28;20207;-84
2023/03/20 07:36:48;;;;;;;26.77;17.70;;;;;;;;;;5032838;28;20210;-85
2023/03/20 07:39:16;;;;;;;27.17;17.23;;;;;;;;;;5020773;28;20242;-84
2023/03/20 07:41:43;;;;;;;25.33;16.53;;;;;;;;;;5013158;28;20194;-85
2023/03/20 07:44:13;;;;;;;27.17;16.97;;;;;;;;;;5032943;28;20214;-85
2023/03/20 07:46:40;;;;;;;24.63;16.30;;;;;;;;;;5033419;28;20568;-85
2023/03/20 07:49:08;;;;;;;26.80;17.43;;;;;;;;;;5033427;28;20211;-85
2023/03/20 07:51:35;;;;;;;26.80;18.10;;;;;;;;;;5032652;28;20206;-86
2023/03/20 07:54:02;;;;;;;31.17;17.90;;;;;;;;;;5024003;28;20213;-85
2023/03/20 07:56:31;;;;;;;29.07;18.97;;;;;;;;;;5028117;28;20215;-84
2023/03/20 07:58:58;;;;;;;27.47;19.07;;;;;;;;;;5033178;28;20261;-85
2023/03/20 08:01:25;;;;;;;27.67;18.80;;;;;;;;;;5031434;28;20214;-84
2023/03/20 08:03:52;;;;;;;30.30;17.63;;;;;;;;;;5032630;28;20605;-85
2023/03/20 08:06:19;;;;;;;25.03;16.67;;;;;;;;;;5032895;28;20226;-85
2023/03/20 08:08:46;;;;;;;26.43;18.33;;;;;;;;;;5023132;28;20238;-85
2023/03/20 08:11:13;;;;;;;20.80;14.00;;;;;;;;;;5015487;28;20188;-85
2023/03/20 08:13:42;;;;;;;23.53;16.27;;;;;;;;;;5031500;28;20579;-85
2023/03/20 08:16:10;;;;;;;29.50;17.20;;;;;;;;;;5032617;28;20318;-84
2023/03/20 08:18:37;;;;;;;24.73;16.30;;;;;;;;;;5032547;28;20245;-85
2023/03/20 08:21:04;;;;;;;30.17;16.27;;;;;;;;;;5031539;28;20686;-85
2023/03/20 08:23:32;;;;;;;26.43;15.13;;;;;;;;;;5012660;28;20231;-85
2023/03/20 08:25:59;;;;;;;26.03;14.97;;;;;;;;;;5013390;28;20229;-85
2023/03/20 08:28:26;;;;;;;22.90;14.33;;;;;;;;;;5012694;28;20318;-85
2023/03/20 08:30:55;;;;;;;20.30;13.50;;;;;;;;;;5013174;28;20198;-85
2023/03/20 08:33:22;;;;;;;24.60;15.70;;;;;;;;;;5011974;28;20715;-85
2023/03/20 08:35:56;;;;;;;20.50;13.27;;;;;;;;;;5022689;28;20602;-85
2023/03/20 08:38:23;;;;;;;18.07;12.90;;;;;;;;;;5032038;28;20706;-85
2023/03/20 08:40:51;;;;;;;14.33;10.60;;;;;;;;;;5032619;28;20186;-85
2023/03/20 08:43:18;;;;;;;15.17;10.93;;;;;;;;;;5019484;28;20241;-85
2023/03/20 08:45:46;;;;;;;15.50;11.40;;;;;;;;;;5032498;28;20585;-85
2023/03/20 08:48:15;;;;;;;11.17;9.83;;;;;;;;;;5031640;28;20231;-85
2023/03/20 08:50:43;;;;;;;14.07;10.37;;;;;;;;;;5032154;28;20576;-85
2023/03/20 08:53:11;;;;;;;14.70;10.60;;;;;;;;;;5031241;28;20230;-85
2023/03/20 08:55:38;;;;;;;13.00;10.00;;;;;;;;;;5032177;28;20780;-85
2023/03/20 08:58:05;;;;;;;15.80;11.33;;;;;;;;;;5031937;28;20241;-85
2023/03/20 09:00:33;;;;;;;16.20;10.40;;;;;;;;;;5032968;28;20249;-85
2023/03/20 09:03:00;;;;;;;17.13;11.90;;;;;;;;;;5019203;28;20231;-84
2023/03/20 09:05:28;;;;;;;15.07;11.17;;;;;;;;;;5028076;28;20284;-85
2023/03/20 09:07:55;;;;;;;19.73;13.33;;;;;;;;;;5032243;28;20238;-85
2023/03/20 09:10:22;;;;;;;22.80;14.47;;;;;;;;;;5035257;28;20205;-85
2023/03/20 09:12:49;;;;;;;23.30;14.23;;;;;;;;;;5030738;28;20231;-84
2023/03/20 09:15:16;;;;;;;22.63;14.23;;;;;;;;;;5033603;28;20233;-84
2023/03/20 09:17:44;;;;;;;25.10;15.17;;;;;;;;;;5032272;28;20227;-85
2023/03/20 09:20:11;;;;;;;22.63;14.80;;;;;;;;;;5026262;28;20223;-84
2023/03/20 09:22:42;;;;;;;24.00;15.43;;;;;;;;;;5022158;28;20234;-84
2023/03/20 09:25:10;;;;;;;25.23;14.17;;;;;;;;;;5032140;28;20226;-85
2023/03/20 09:27:37;;;;;;;24.50;15.87;;;;;;;;;;5031710;28;20265;-84
2023/03/20 09:30:04;;;;;;;27.30;15.20;;;;;;;;;;5032051;28;20264;-84
2023/03/20 09:32:31;;;;;;;24.20;15.17;;;;;;;;;;5029663;28;20598;-84
2023/03/20 09:34:59;;;;;;;23.93;15.07;;;;;;;;;;5031913;28;20230;-85
2023/03/20 09:37:26;;;;;;;20.13;14.00;;;;;;;;;;5030992;28;20261;-85
2023/03/20 09:39:54;;;;;;;20.57;13.43;;;;;;;;;;5019894;28;20211;-86
2023/03/20 09:42:29;;;;;;;23.63;15.53;;;;;;;;;;5027572;28;20243;-84
2023/03/20 09:45:02;;;;;;;22.83;14.77;;;;;;;;;;5010747;28;20260;-84
2023/03/20 09:47:32;;;;;;;21.40;13.87;;;;;;;;;;5011324;28;20239;-84
2023/03/20 09:50:08;;;;;;;23.27;15.60;;;;;;;;;;5025895;28;20191;-84
2023/03/20 09:52:36;;;;;;;21.80;13.33;;;;;;;;;;5026836;28;20245;-86
2023/03/20 09:55:07;;;;;;;19.50;12.97;;;;;;;;;;5012154;28;20730;-85
2023/03/20 09:57:36;;;;;;;19.53;13.83;;;;;;;;;;5011682;28;20235;-85
2023/03/20 10:00:06;;;;;;;20.70;12.87;;;;;;;;;;5030204;28;20210;-84
2023/03/20 10:02:38;;;;;;;21.60;13.13;;;;;;;;;;5027565;28;20235;-84
2023/03/20 10:05:12;;;;;;;24.57;14.43;;;;;;;;;;5011719;28;20235;-84
2023/03/20 10:07:39;;;;;;;20.03;12.87;;;;;;;;;;5011339;28;20262;-84
2023/03/20 10:10:08;;;;;;;23.63;14.87;;;;;;;;;;5011632;28;20199;-85
2023/03/20 10:12:44;;;;;;;26.93;14.30;;;;;;;;;;5013116;28;20247;-85
2023/03/20 10:15:19;;;;;;;27.23;16.33;;;;;;;;;;5031295;28;20230;-85
2023/03/20 10:17:52;;;;;;;29.87;16.37;;;;;;;;;;5030862;28;20311;-85
2023/03/20 10:20:25;;;;;;;27.30;15.57;;;;;;;;;;5031250;28;20697;-85
2023/03/20 10:22:55;;;;;;;22.93;14.43;;;;;;;;;;5030142;28;20241;-85
2023/03/20 10:25:26;;;;;;;24.27;14.53;;;;;;;;;;5031655;28;20229;-85
2023/03/20 10:27:58;;;;;;;26.37;15.40;;;;;;;;;;5030917;28;20234;-86
2023/03/20 10:30:43;;;;;;;21.93;13.30;;;;;;;;;;5031469;28;20194;-85
2023/03/20 10:33:18;;;;;;;18.03;12.13;;;;;;;;;;5029987;28;20254;-85
2023/03/20 10:35:47;;;;;;;16.17;10.57;;;;;;;;;;5031275;28;20237;-85
2023/03/20 10:38:18;;;;;;;19.17;10.97;;;;;;;;;;5030780;28;20234;-85
2023/03/20 10:40:47;;;;;;;15.90;11.47;;;;;;;;;;5031261;28;20191;-86
2023/03/20 10:43:17;;;;;;;13.77;10.33;;;;;;;;;;5030780;28;20227;-85
2023/03/20 10:45:46;;;;;;;12.53;9.93;;;;;;;;;;5034651;28;20715;-85
2023/03/20 10:48:16;;;;;;;12.37;9.33;;;;;;;;;;5033874;28;20238;-85
2023/03/20 10:50:46;;;;;;;14.43;8.50;;;;;;;;;;5034593;28;20206;-85
2023/03/20 10:53:21;;;;;;;10.00;7.97;;;;;;;;;;5034050;28;20706;-85
2023/03/20 10:55:49;;;;;;;13.97;10.03;;;;;;;;;;5035548;28;20566;-85
2023/03/20 10:58:18;;;;;;;11.23;9.27;;;;;;;;;;5034242;28;20230;-85
2023/03/20 11:00:45;;;;;;;10.40;8.13;;;;;;;;;;5035125;28;20195;-86
2023/03/20 11:03:19;;;;;;;12.57;8.53;;;;;;;;;;5034319;28;20250;-86
2023/03/20 11:05:46;;;;;;;11.40;7.70;;;;;;;;;;5035300;28;20233;-86
2023/03/20 11:08:14;;;;;;;9.30;6.97;;;;;;;;;;5035095;28;20238;-85
2023/03/20 11:10:43;;;;;;;12.43;7.70;;;;;;;;;;5035392;28;20202;-85
2023/03/20 11:13:18;;;;;;;9.13;7.40;;;;;;;;;;5033980;28;20245;-85
2023/03/20 11:15:45;;;;;;;10.33;7.00;;;;;;;;;;5065158;22;20309;-86
2023/03/20 11:18:14;;;;;;;10.80;7.60;;;;;;;;;;5055482;28;20229;-87
2023/03/20 11:20:46;;;;;;;10.20;7.47;;;;;;;;;;5056364;28;20316;-85
2023/03/20 11:23:16;;;;;;;9.03;7.63;;;;;;;;;;5054766;28;20599;-84
2023/03/20 11:25:50;;;;;;;11.37;7.13;;;;;;;;;;5043092;28;20223;-86
2023/03/20 11:28:25;;;;;;;10.73;7.53;;;;;;;;;;5042254;28;20601;-87
2023/03/20 11:30:57;;;;;;;9.07;7.33;;;;;;;;;;5032615;28;20217;-87
2023/03/20 11:33:26;;;;;;;9.17;7.30;;;;;;;;;;5018169;28;20243;-92
2023/03/20 11:35:56;;;;;;;9.53;7.10;;;;;;;;;;5036876;28;20227;-89
2023/03/20 11:38:23;;;;;;;9.37;6.70;;;;;;;;;;5036014;28;20313;-91
2023/03/20 11:40:52;;;;;;;10.63;8.27;;;;;;;;;;5037472;28;20206;-90
2023/03/20 11:43:20;;;;;;;11.73;8.27;;;;;;;;;;5037715;28;20310;-91
2023/03/20 11:45:50;;;;;;;9.40;7.43;;;;;;;;;;5035719;28;20226;-91
2023/03/20 11:48:19;;;;;;;9.93;8.33;;;;;;;;;;5035429;28;20231;-90
2023/03/20 11:50:47;;;;;;;12.10;7.50;;;;;;;;;;5036437;28;20214;-88
2023/03/20 11:53:22;;;;;;;10.87;8.00;;;;;;;;;;5035859;28;20239;-90
2023/03/20 11:56:00;;;;;;;9.47;7.80;;;;;;;;;;5054642;28;20221;-90
2023/03/20 11:58:28;;;;;;;9.67;7.47;;;;;;;;;;5055274;28;20236;-91
2023/03/20 12:00:57;;;;;;;9.60;6.63;;;;;;;;;;5056085;28;20263;-90
2023/03/20 12:03:37;;;;;;;7.47;6.03;;;;;;;;;;5055509;28;20693;-91
2023/03/20 12:06:07;;;;;;;9.83;6.27;;;;;;;;;;5055710;28;20639;-91
2023/03/20 12:08:37;;;;;;;8.90;6.17;;;;;;;;;;5055312;28;20340;-89
2023/03/20 12:11:20;;;;;;;6.50;5.77;;;;;;;;;;5055682;28;20292;-87
2023/03/20 12:13:50;;;;;;;6.83;5.27;;;;;;;;;;5055956;28;20233;-88
2023/03/20 12:16:26;;;;;;;8.33;5.87;;;;;;;;;;5040195;28;20226;-88
2023/03/20 12:18:55;;;;;;;5.60;4.97;;;;;;;;;;5015245;28;20235;-87
2023/03/20 12:21:23;;;;;;;6.60;5.23;;;;;;;;;;5015645;28;20285;-88
2023/03/20 12:23:53;;;;;;;8.03;6.07;;;;;;;;;;5015574;28;20244;-88
2023/03/20 12:26:22;;;;;;;7.63;6.03;;;;;;;;;;5035024;28;20215;-88
2023/03/20 12:29:08;;;;;;;8.20;5.33;;;;;;;;;;5034559;28;20242;-87
2023/03/20 12:31:40;;;;;;;8.20;6.20;;;;;;;;;;5034704;28;20201;-89
2023/03/20 12:34:10;;;;;;;7.20;6.10;;;;;;;;;;5033914;28;20268;-89
2023/03/20 12:36:38;;;;;;;5.90;5.23;;;;;;;;;;5034219;28;20722;-88
2023/03/20 12:39:12;;;;;;;6.33;5.03;;;;;;;;;;5036966;28;20205;-89
2023/03/20 12:41:41;;;;;;;6.00;4.77;;;;;;;;;;5033405;28;20179;-88
2023/03/20 12:44:17;;;;;;;7.43;5.20;;;;;;;;;;5033930;28;20211;-87
2023/03/20 12:46:49;;;;;;;5.80;4.93;;;;;;;;;;5033061;28;20218;-89
2023/03/20 12:49:21;;;;;;;5.40;4.73;;;;;;;;;;5022325;28;20198;-88
2023/03/20 12:51:55;;;;;;;5.80;4.67;;;;;;;;;;5032459;28;20202;-87
2023/03/20 12:54:28;;;;;;;4.90;4.27;;;;;;;;;;5032682;28;20218;-87
2023/03/20 12:57:04;;;;;;;6.63;5.20;;;;;;;;;;5032952;28;20690;-88
2023/03/20 12:59:35;;;;;;;4.30;3.90;;;;;;;;;;5033047;28;20213;-87
2023/03/20 13:02:12;;;;;;;5.87;5.00;;;;;;;;;;5032570;28;20234;-87
2023/03/20 13:04:52;;;;;;;6.63;5.17;;;;;;;;;;5032989;28;20724;-88
2023/03/20 13:07:28;;;;;;;8.33;6.80;;;;;;;;;;5046421;28;20245;-88
2023/03/20 13:10:11;;;;;;;7.23;6.07;;;;;;;;;;5053486;28;20206;-88
2023/03/20 13:12:50;;;;;;;7.37;6.47;;;;;;;;;;5035135;28;20253;-88
2023/03/20 13:15:23;;;;;;;7.23;6.33;;;;;;;;;;5053724;28;20230;-88
2023/03/20 13:17:54;;;;;;;8.65;6.30;;;;;;;;;;5031914;28;20246;-88
2023/03/20 13:20:25;;;;;;;6.43;4.82;;;;;;;;;;5033071;28;20202;-88
2023/03/20 13:22:58;;;;;;;5.35;4.85;;;;;;;;;;5052788;28;20244;-88
2023/03/20 13:25:33;;;;;;;6.03;4.67;;;;;;;;;;5053019;28;20233;-88
2023/03/20 13:28:07;;;;;;;5.38;4.88;;;;;;;;;;5052961;28;20244;-88
2023/03/20 13:30:39;;;;;;;5.88;5.07;;;;;;;;;;5048134;28;20202;-88
2023/03/20 13:33:15;;;;;;;5.13;4.73;;;;;;;;;;5013199;28;20238;-88
2023/03/20 13:35:47;;;;;;;7.22;4.05;;;;;;;;;;5014463;28;20234;-89
2023/03/20 13:38:17;;;;;;;5.38;4.53;;;;;;;;;;5014094;28;20235;-88
2023/03/20 13:40:46;;;;;;;4.10;3.70;;;;;;;;;;5024650;28;20218;-88
2023/03/20 13:43:22;;;;;;;4.67;4.17;;;;;;;;;;5033160;28;20232;-87
2023/03/20 13:45:52;;;;;;;4.27;3.87;;;;;;;;;;5054514;28;20217;-90
2023/03/20 13:48:27;;;;;;;5.38;4.75;;;;;;;;;;5052950;28;20238;-89
2023/03/20 13:50:59;;;;;;;4.50;3.37;;;;;;;;;;5053982;28;20190;-90
2023/03/20 13:53:30;;;;;;;6.07;5.13;;;;;;;;;;5053099;28;20229;-89
2023/03/20 13:56:01;;;;;;;4.77;4.00;;;;;;;;;;5054148;28;20246;-90
2023/03/20 13:58:44;;;;;;;4.83;4.40;;;;;;;;;;5053941;28;20717;-96
2023/03/20 14:01:14;;;;;;;5.13;3.75;;;;;;;;;;5053595;28;20209;-92
2023/03/20 14:03:45;;;;;;;4.63;4.03;;;;;;;;;;5053076;28;20242;-90
2023/03/20 14:06:17;;;;;;;4.07;3.37;;;;;;;;;;5044573;28;20234;-91
2023/03/20 14:08:48;;;;;;;5.57;3.50;;;;;;;;;;5022284;28;20239;-90
2023/03/20 14:11:31;;;;;;;5.57;3.70;;;;;;;;;;5015021;28;20187;-90
2023/03/20 14:13:59;;;;;;;3.50;3.10;;;;;;;;;;5033329;28;20242;-91
2023/03/20 14:16:30;;;;;;;4.13;3.37;;;;;;;;;;5033307;28;20238;-91
2023/03/20 14:19:07;;;;;;;7.30;3.67;;;;;;;;;;5016134;28;20253;-91
2023/03/20 14:21:35;;;;;;;5.30;3.73;;;;;;;;;;5032411;28;20218;-90
2023/03/20 14:24:04;;;;;;;7.03;4.13;;;;;;;;;;5057476;28;20260;-90
2023/03/20 14:26:32;;;;;;;4.37;3.73;;;;;;;;;;5057524;28;20213;-89
2023/03/20 14:29:01;;;;;;;4.67;3.77;;;;;;;;;;5056934;28;20213;-87
2023/03/20 14:31:31;;;;;;;5.37;3.93;;;;;;;;;;5057230;28;20252;-89
2023/03/20 14:34:00;;;;;;;5.57;4.20;;;;;;;;;;5037168;28;20222;-89
2023/03/20 14:36:30;;;;;;;5.33;3.70;;;;;;;;;;5036354;28;20226;-87
2023/03/20 14:39:00;;;;;;;6.53;3.80;;;;;;;;;;5036905;28;20238;-90
2023/03/20 14:41:31;;;;;;;4.70;3.63;;;;;;;;;;5044040;28;20889;-89
2023/03/20 14:44:03;;;;;;;4.63;3.50;;;;;;;;;;5036887;28;20222;-89
2023/03/20 14:46:35;;;;;;;3.50;3.20;;;;;;;;;;5036168;28;20219;-88
2023/03/20 14:49:05;;;;;;;5.60;3.23;;;;;;;;;;5050303;28;20218;-91